sensor_id;sensor_type;location;lat;lon;timestamp;pressure;altitude;pressure_sealevel;temperature;humidity
50652;BME280;66928;52.086;5.240;2023-03-11T06:34:07;100886.0;;;0.5;83.16
50652;BME280;66928;52.086;5.240;2023-03-11T06:35:54;100896.0;;;0.58;82.97
50652;BME280;66928;52.086;5.240;2023-03-11T06:37:31;100901.0;;;0.61;83.19
50652;BME280;66928;52.086;5.240;2023-03-11T06:39:09;100905.0;;;0.63;82.63
50652;BME280;66928;52.086;5.240;2023-03-11T06:42:22;100897.0;;;0.7;82.41
50652;BME280;66928;52.086;5.240;2023-03-11T06:43:58;100900.0;;;0.72;82.33
50652;BME280;66928;52.086;5.240;2023-03-11T06:45:34;100903.0;;;0.61;83.07
50652;BME280;66928;52.086;5.240;2023-03-11T06:48:47;100907.0;;;0.56;82.76
50652;BME280;66928;52.086;5.240;2023-03-11T06:50:24;100903.0;;;0.52;82.92
50652;BME280;66928;52.086;5.240;2023-03-11T06:52:00;100902.0;;;0.59;83.37
50652;BME280;66928;52.086;5.240;2023-03-11T06:55:12;100906.0;;;0.58;83.37
50652;BME280;66928;52.086;5.240;2023-03-11T06:56:48;100905.0;;;0.52;83.69
50652;BME280;66928;52.086;5.240;2023-03-11T06:58:25;100898.0;;;0.54;83.24
50652;BME280;66928;52.086;5.240;2023-03-11T07:00:02;100901.0;;;0.66;83.58
50652;BME280;66928;52.086;5.240;2023-03-11T07:03:15;100914.0;;;0.69;83.82
50652;BME280;66928;52.086;5.240;2023-03-11T07:04:51;100920.0;;;0.72;83.55
50652;BME280;66928;52.086;5.240;2023-03-11T07:06:27;100926.0;;;0.74;83.55
50652;BME280;66928;52.086;5.240;2023-03-11T07:09:40;100925.0;;;0.86;82.99
50652;BME280;66928;52.086;5.240;2023-03-11T07:11:18;100933.0;;;0.91;81.8
50652;BME280;66928;52.086;5.240;2023-03-11T07:12:56;100934.0;;;0.92;82.17
50652;BME280;66928;52.086;5.240;2023-03-11T07:16:10;100935.0;;;0.91;82.07
50652;BME280;66928;52.086;5.240;2023-03-11T07:17:48;100938.0;;;0.98;82.27
50652;BME280;66928;52.086;5.240;2023-03-11T07:19:24;100940.0;;;1.03;81.77
50652;BME280;66928;52.086;5.240;2023-03-11T07:21:01;100940.0;;;1.16;82.01
50652;BME280;66928;52.086;5.240;2023-03-11T07:24:14;100940.0;;;1.16;81.89
50652;BME280;66928;52.086;5.240;2023-03-11T07:25:50;100942.0;;;1.3;80.77
50652;BME280;66928;52.086;5.240;2023-03-11T07:27:26;100942.0;;;1.29;80.38
50652;BME280;66928;52.086;5.240;2023-03-11T07:30:39;100946.0;;;1.38;80.55
50652;BME280;66928;52.086;5.240;2023-03-11T07:32:15;100947.0;;;1.43;80.33
50652;BME280;66928;52.086;5.240;2023-03-11T07:33:52;100952.0;;;1.51;79.98
50652;BME280;66928;52.086;5.240;2023-03-11T07:35:29;100953.0;;;1.52;79.98
50652;BME280;66928;52.086;5.240;2023-03-11T07:38:42;100956.0;;;1.64;79.08
50652;BME280;66928;52.086;5.240;2023-03-11T07:40:18;100950.0;;;1.78;78.67
50652;BME280;66928;52.086;5.240;2023-03-11T07:41:54;100949.0;;;1.78;78.55
50652;BME280;66928;52.086;5.240;2023-03-11T07:45:08;100952.0;;;1.71;78.11
50652;BME280;66928;52.086;5.240;2023-03-11T07:46:45;100952.0;;;1.77;78.47
50652;BME280;66928;52.086;5.240;2023-03-11T07:48:21;100952.0;;;1.82;77.34
50652;BME280;66928;52.086;5.240;2023-03-11T07:51:35;100956.0;;;1.92;76.42
50652;BME280;66928;52.086;5.240;2023-03-11T07:53:12;100959.0;;;1.93;76.72
50652;BME280;66928;52.086;5.240;2023-03-11T07:54:48;100962.0;;;2.11;76.69
50652;BME280;66928;52.086;5.240;2023-03-11T07:56:26;100968.0;;;2.21;76.19
50652;BME280;66928;52.086;5.240;2023-03-11T07:59:40;100972.0;;;2.25;75.12
50652;BME280;66928;52.086;5.240;2023-03-11T08:01:18;100977.0;;;2.31;74.36
50652;BME280;66928;52.086;5.240;2023-03-11T08:02:55;100980.0;;;2.37;73.94
50652;BME280;66928;52.086;5.240;2023-03-11T08:06:11;100978.0;;;2.44;74.08
50652;BME280;66928;52.086;5.240;2023-03-11T08:07:47;100980.0;;;2.48;73.83
50652;BME280;66928;52.086;5.240;2023-03-11T08:09:23;100981.0;;;2.56;74.05
50652;BME280;66928;52.086;5.240;2023-03-11T08:12:38;100980.0;;;2.61;73.69
50652;BME280;66928;52.086;5.240;2023-03-11T08:14:15;100980.0;;;2.65;72.86
50652;BME280;66928;52.086;5.240;2023-03-11T08:15:51;100981.0;;;2.73;72.41
50652;BME280;66928;52.086;5.240;2023-03-11T08:17:27;100988.0;;;2.79;72.31
50652;BME280;66928;52.086;5.240;2023-03-11T08:20:39;100989.0;;;2.78;71.7
50652;BME280;66928;52.086;5.240;2023-03-11T08:22:16;100991.0;;;2.89;71.06
50652;BME280;66928;52.086;5.240;2023-03-11T08:23:56;100993.0;;;2.97;71.02
50652;BME280;66928;52.086;5.240;2023-03-11T08:27:08;100992.0;;;3.03;71.14
50652;BME280;66928;52.086;5.240;2023-03-11T08:28:45;100996.0;;;3.05;68.64
50652;BME280;66928;52.086;5.240;2023-03-11T08:30:23;100996.0;;;3.18;68.55
50652;BME280;66928;52.086;5.240;2023-03-11T08:32:02;101003.0;;;3.17;67.11
50652;BME280;66928;52.086;5.240;2023-03-11T08:35:15;101002.0;;;3.31;66.33
50652;BME280;66928;52.086;5.240;2023-03-11T08:36:52;101009.0;;;3.42;65.64
50652;BME280;66928;52.086;5.240;2023-03-11T08:38:28;101008.0;;;3.49;64.77
50652;BME280;66928;52.086;5.240;2023-03-11T08:41:41;101008.0;;;3.55;64.8
50652;BME280;66928;52.086;5.240;2023-03-11T08:43:17;101007.0;;;3.65;64.16
50652;BME280;66928;52.086;5.240;2023-03-11T08:44:53;101010.0;;;3.76;64.35
50652;BME280;66928;52.086;5.240;2023-03-11T08:48:10;101011.0;;;3.8;64.38
50652;BME280;66928;52.086;5.240;2023-03-11T08:49:47;101012.0;;;3.86;63.89
50652;BME280;66928;52.086;5.240;2023-03-11T08:51:24;101008.0;;;3.94;63.33
50652;BME280;66928;52.086;5.240;2023-03-11T08:53:01;101010.0;;;3.99;62.12
50652;BME280;66928;52.086;5.240;2023-03-11T08:56:14;101018.0;;;4.09;62.5
50652;BME280;66928;52.086;5.240;2023-03-11T08:57:51;101015.0;;;4.07;62.17
50652;BME280;66928;52.086;5.240;2023-03-11T08:59:28;101020.0;;;4.14;62.1
50652;BME280;66928;52.086;5.240;2023-03-11T09:02:42;101026.0;;;4.22;62.46
50652;BME280;66928;52.086;5.240;2023-03-11T09:04:18;101032.0;;;4.24;63.36
50652;BME280;66928;52.086;5.240;2023-03-11T09:05:56;101038.0;;;4.32;62.83
50652;BME280;66928;52.086;5.240;2023-03-11T09:07:32;101040.0;;;4.34;61.96
50652;BME280;66928;52.086;5.240;2023-03-11T09:10:45;101039.0;;;4.37;61.6
50652;BME280;66928;52.086;5.240;2023-03-11T09:12:21;101037.0;;;4.47;61.01
50652;BME280;66928;52.086;5.240;2023-03-11T09:13:57;101041.0;;;4.54;60.09
50652;BME280;66928;52.086;5.240;2023-03-11T09:17:10;101044.0;;;4.7;60.34
50652;BME280;66928;52.086;5.240;2023-03-11T09:18:46;101045.0;;;4.7;58.98
50652;BME280;66928;52.086;5.240;2023-03-11T09:20:22;101046.0;;;4.8;58.52
50652;BME280;66928;52.086;5.240;2023-03-11T09:23:35;101049.0;;;4.92;59.24
50652;BME280;66928;52.086;5.240;2023-03-11T09:25:13;101047.0;;;4.88;55.84
50652;BME280;66928;52.086;5.240;2023-03-11T09:26:49;101053.0;;;5.08;56.28
50652;BME280;66928;52.086;5.240;2023-03-11T09:28:26;101053.0;;;5.13;57.71
50652;BME280;66928;52.086;5.240;2023-03-11T09:31:39;101045.0;;;5.2;57.95
50652;BME280;66928;52.086;5.240;2023-03-11T09:33:15;101044.0;;;5.27;56.04
50652;BME280;66928;52.086;5.240;2023-03-11T09:34:51;101046.0;;;5.28;56.2
50652;BME280;66928;52.086;5.240;2023-03-11T09:38:03;101043.0;;;5.27;55.87
50652;BME280;66928;52.086;5.240;2023-03-11T09:39:39;101038.0;;;5.43;55.49
50652;BME280;66928;52.086;5.240;2023-03-11T09:41:24;101035.0;;;5.46;55.1
50652;BME280;66928;52.086;5.240;2023-03-11T09:43:24;101037.0;;;5.43;54.37
50652;BME280;66928;52.086;5.240;2023-03-11T09:46:59;101043.0;;;5.37;54.51
50652;BME280;66928;52.086;5.240;2023-03-11T09:49:51;101047.0;;;5.43;54.55
50652;BME280;66928;52.086;5.240;2023-03-11T09:51:41;101042.0;;;5.45;55.36
50652;BME280;66928;52.086;5.240;2023-03-11T09:55:21;101046.0;;;5.52;54.1
50652;BME280;66928;52.086;5.240;2023-03-11T09:57:02;101046.0;;;5.55;53.31
50652;BME280;66928;52.086;5.240;2023-03-11T09:58:42;101046.0;;;5.67;53.87
50652;BME280;66928;52.086;5.240;2023-03-11T10:00:22;101041.0;;;5.53;53.95
50652;BME280;66928;52.086;5.240;2023-03-11T10:01:59;101044.0;;;5.68;53.18
50652;BME280;66928;52.086;5.240;2023-03-11T10:05:15;101055.0;;;5.81;53.64
50652;BME280;66928;52.086;5.240;2023-03-11T10:06:55;101051.0;;;5.81;52.85
50652;BME280;66928;52.086;5.240;2023-03-11T10:08:40;101048.0;;;5.94;53.47
50652;BME280;66928;52.086;5.240;2023-03-11T10:10:17;101057.0;;;5.92;52.36
50652;BME280;66928;52.086;5.240;2023-03-11T10:13:50;101058.0;;;6.09;52.93
50652;BME280;66928;52.086;5.240;2023-03-11T10:15:39;101060.0;;;6.11;51.76
50652;BME280;66928;52.086;5.240;2023-03-11T10:17:34;101060.0;;;6.17;51.73
50652;BME280;66928;52.086;5.240;2023-03-11T10:19:24;101064.0;;;6.14;51.22
50652;BME280;66928;52.086;5.240;2023-03-11T10:21:11;101062.0;;;6.29;50.93
50652;BME280;66928;52.086;5.240;2023-03-11T10:23:03;101060.0;;;6.42;50.68
50652;BME280;66928;52.086;5.240;2023-03-11T10:26:35;101062.0;;;6.55;51.12
50652;BME280;66928;52.086;5.240;2023-03-11T10:28:13;101058.0;;;6.54;50.61
50652;BME280;66928;52.086;5.240;2023-03-11T10:29:57;101057.0;;;6.6;50.88
50652;BME280;66928;52.086;5.240;2023-03-11T10:31:37;101058.0;;;6.49;50.9
50652;BME280;66928;52.086;5.240;2023-03-11T10:33:21;101056.0;;;6.42;51.41
50652;BME280;66928;52.086;5.240;2023-03-11T10:36:56;101061.0;;;6.5;50.52
50652;BME280;66928;52.086;5.240;2023-03-11T10:38:36;101058.0;;;6.68;50.56
50652;BME280;66928;52.086;5.240;2023-03-11T10:40:25;101055.0;;;6.66;49.68
50652;BME280;66928;52.086;5.240;2023-03-11T10:42:10;101051.0;;;6.66;51.62
50652;BME280;66928;52.086;5.240;2023-03-11T10:43:51;101058.0;;;6.62;51.75
50652;BME280;66928;52.086;5.240;2023-03-11T10:47:16;101053.0;;;6.52;50.71
50652;BME280;66928;52.086;5.240;2023-03-11T10:48:55;101053.0;;;6.63;49.78
50652;BME280;66928;52.086;5.240;2023-03-11T10:50:33;101053.0;;;6.65;50.16
50652;BME280;66928;52.086;5.240;2023-03-11T10:52:11;101049.0;;;6.67;50.3
50652;BME280;66928;52.086;5.240;2023-03-11T10:55:26;101045.0;;;6.7;50.46
50652;BME280;66928;52.086;5.240;2023-03-11T10:57:05;101046.0;;;6.82;49.5
50652;BME280;66928;52.086;5.240;2023-03-11T10:58:48;101050.0;;;6.72;49.29
50652;BME280;66928;52.086;5.240;2023-03-11T11:02:22;101050.0;;;6.8;49.75
50652;BME280;66928;52.086;5.240;2023-03-11T11:04:00;101052.0;;;6.82;51.01
50652;BME280;66928;52.086;5.240;2023-03-11T11:05:38;101051.0;;;6.91;49.66
50652;BME280;66928;52.086;5.240;2023-03-11T11:07:27;101055.0;;;6.88;48.33
50652;BME280;66928;52.086;5.240;2023-03-11T11:09:12;101062.0;;;6.96;49.94
50652;BME280;66928;52.086;5.240;2023-03-11T11:12:28;101065.0;;;6.91;49.19
50652;BME280;66928;52.086;5.240;2023-03-11T11:14:04;101067.0;;;6.91;49.67
50652;BME280;66928;52.086;5.240;2023-03-11T11:15:50;101067.0;;;6.92;48.65
50652;BME280;66928;52.086;5.240;2023-03-11T11:17:29;101062.0;;;6.9;48.85
50652;BME280;66928;52.086;5.240;2023-03-11T11:20:58;101058.0;;;6.98;49.14
50652;BME280;66928;52.086;5.240;2023-03-11T11:22:48;101061.0;;;6.89;49.79
50652;BME280;66928;52.086;5.240;2023-03-11T11:24:27;101066.0;;;6.91;47.86
50652;BME280;66928;52.086;5.240;2023-03-11T11:26:07;101067.0;;;6.97;48.32
50652;BME280;66928;52.086;5.240;2023-03-11T11:27:52;101068.0;;;6.96;48.54
50652;BME280;66928;52.086;5.240;2023-03-11T11:31:19;101070.0;;;6.68;48.97
50652;BME280;66928;52.086;5.240;2023-03-11T11:33:20;101068.0;;;6.82;48.36
50652;BME280;66928;52.086;5.240;2023-03-11T11:34:59;101067.0;;;6.89;48.47
50652;BME280;66928;52.086;5.240;2023-03-11T11:36:36;101064.0;;;7.1;48.75
50652;BME280;66928;52.086;5.240;2023-03-11T11:38:13;101063.0;;;7.14;49.52
50652;BME280;66928;52.086;5.240;2023-03-11T11:41:32;101063.0;;;7.25;49.48
50652;BME280;66928;52.086;5.240;2023-03-11T11:43:13;101063.0;;;7.17;49.58
50652;BME280;66928;52.086;5.240;2023-03-11T11:44:56;101059.0;;;6.98;49.54
50652;BME280;66928;52.086;5.240;2023-03-11T11:46:39;101064.0;;;7.01;49.76
50652;BME280;66928;52.086;5.240;2023-03-11T11:50:01;101059.0;;;7.09;48.34
50652;BME280;66928;52.086;5.240;2023-03-11T11:51:41;101068.0;;;6.99;47.76
50652;BME280;66928;52.086;5.240;2023-03-11T11:53:29;101065.0;;;6.48;48.85
50652;BME280;66928;52.086;5.240;2023-03-11T11:55:16;101067.0;;;6.47;49.88
50652;BME280;66928;52.086;5.240;2023-03-11T11:58:33;101069.0;;;6.63;49.9
50652;BME280;66928;52.086;5.240;2023-03-11T12:00:17;101068.0;;;6.67;48.95
50652;BME280;66928;52.086;5.240;2023-03-11T12:01:59;101067.0;;;6.58;49.68
50652;BME280;66928;52.086;5.240;2023-03-11T12:03:52;101069.0;;;6.83;47.99
50652;BME280;66928;52.086;5.240;2023-03-11T12:06:07;101062.0;;;6.76;48.76
50652;BME280;66928;52.086;5.240;2023-03-11T12:07:56;101061.0;;;7.1;47.96
50652;BME280;66928;52.086;5.240;2023-03-11T12:09:46;101059.0;;;7.18;48.49
50652;BME280;66928;52.086;5.240;2023-03-11T12:13:46;101057.0;;;7.24;49.39
50652;BME280;66928;52.086;5.240;2023-03-11T12:15:38;101055.0;;;7.25;49.52
50652;BME280;66928;52.086;5.240;2023-03-11T12:17:18;101056.0;;;7.24;48.99
50652;BME280;66928;52.086;5.240;2023-03-11T12:19:02;101058.0;;;7.11;49.35
50652;BME280;66928;52.086;5.240;2023-03-11T12:20:48;101058.0;;;7.27;49.84
50652;BME280;66928;52.086;5.240;2023-03-11T12:23:10;101052.0;;;7.27;48.85
50652;BME280;66928;52.086;5.240;2023-03-11T12:25:04;101048.0;;;7.42;48.81
50652;BME280;66928;52.086;5.240;2023-03-11T12:27:00;101039.0;;;7.35;48.94
50652;BME280;66928;52.086;5.240;2023-03-11T12:28:45;101040.0;;;7.36;48.14
50652;BME280;66928;52.086;5.240;2023-03-11T12:32:05;101040.0;;;7.46;49.32
50652;BME280;66928;52.086;5.240;2023-03-11T12:33:42;101039.0;;;7.46;48.18
50652;BME280;66928;52.086;5.240;2023-03-11T12:35:23;101043.0;;;7.28;46.57
50652;BME280;66928;52.086;5.240;2023-03-11T12:37:11;101049.0;;;7.2;46.43
50652;BME280;66928;52.086;5.240;2023-03-11T12:38:49;101051.0;;;7.06;45.54
50652;BME280;66928;52.086;5.240;2023-03-11T12:42:39;101047.0;;;7.28;44.99
50652;BME280;66928;52.086;5.240;2023-03-11T12:44:22;101047.0;;;7.34;46.4
50652;BME280;66928;52.086;5.240;2023-03-11T12:46:03;101045.0;;;7.25;47.06
50652;BME280;66928;52.086;5.240;2023-03-11T12:47:40;101041.0;;;7.42;46.59
50652;BME280;66928;52.086;5.240;2023-03-11T12:49:22;101043.0;;;7.35;45.91
50652;BME280;66928;52.086;5.240;2023-03-11T12:52:51;101046.0;;;7.02;45.95
50652;BME280;66928;52.086;5.240;2023-03-11T12:54:29;101046.0;;;7.33;45.45
50652;BME280;66928;52.086;5.240;2023-03-11T12:56:15;101048.0;;;7.22;45.23
50652;BME280;66928;52.086;5.240;2023-03-11T12:59:09;101049.0;;;7.26;44.18
50652;BME280;66928;52.086;5.240;2023-03-11T13:01:02;101050.0;;;7.17;45.56
50652;BME280;66928;52.086;5.240;2023-03-11T13:03:25;101049.0;;;7.3;46.68
50652;BME280;66928;52.086;5.240;2023-03-11T13:05:48;101050.0;;;7.43;45.47
50652;BME280;66928;52.086;5.240;2023-03-11T13:08:06;101047.0;;;7.34;46.89
50652;BME280;66928;52.086;5.240;2023-03-11T13:09:44;101050.0;;;7.31;46.61
50652;BME280;66928;52.086;5.240;2023-03-11T13:11:35;101049.0;;;7.45;46.39
50652;BME280;66928;52.086;5.240;2023-03-11T13:13:27;101048.0;;;7.45;46.0
50652;BME280;66928;52.086;5.240;2023-03-11T13:15:28;101044.0;;;7.58;45.48
50652;BME280;66928;52.086;5.240;2023-03-11T13:17:23;101045.0;;;7.64;43.12
50652;BME280;66928;52.086;5.240;2023-03-11T13:19:47;101045.0;;;7.58;44.48
50652;BME280;66928;52.086;5.240;2023-03-11T13:21:40;101047.0;;;7.59;43.09
50652;BME280;66928;52.086;5.240;2023-03-11T13:23:24;101049.0;;;7.49;43.55
50652;BME280;66928;52.086;5.240;2023-03-11T13:25:30;101045.0;;;7.55;44.22
50652;BME280;66928;52.086;5.240;2023-03-11T13:27:14;101045.0;;;7.68;43.55
50652;BME280;66928;52.086;5.240;2023-03-11T13:31:42;101045.0;;;7.26;44.55
50652;BME280;66928;52.086;5.240;2023-03-11T13:33:30;101045.0;;;7.45;42.91
50652;BME280;66928;52.086;5.240;2023-03-11T13:35:31;101040.0;;;7.68;41.37
50652;BME280;66928;52.086;5.240;2023-03-11T13:39:16;101037.0;;;7.82;41.15
50652;BME280;66928;52.086;5.240;2023-03-11T13:41:14;101038.0;;;7.85;41.58
50652;BME280;66928;52.086;5.240;2023-03-11T13:42:53;101045.0;;;7.96;41.46
50652;BME280;66928;52.086;5.240;2023-03-11T13:44:34;101045.0;;;7.96;42.25
50652;BME280;66928;52.086;5.240;2023-03-11T13:46:25;101038.0;;;8.08;42.4
50652;BME280;66928;52.086;5.240;2023-03-11T13:48:06;101045.0;;;8.07;42.31
50652;BME280;66928;52.086;5.240;2023-03-11T13:51:35;101038.0;;;8.19;41.81
50652;BME280;66928;52.086;5.240;2023-03-11T13:53:18;101036.0;;;8.07;42.64
50652;BME280;66928;52.086;5.240;2023-03-11T13:55:00;101043.0;;;8.14;41.58
50652;BME280;66928;52.086;5.240;2023-03-11T13:56:42;101040.0;;;7.86;43.17
50652;BME280;66928;52.086;5.240;2023-03-11T13:58:21;101045.0;;;7.89;43.28
50652;BME280;66928;52.086;5.240;2023-03-11T14:01:49;101050.0;;;8.02;42.47
50652;BME280;66928;52.086;5.240;2023-03-11T14:03:28;101046.0;;;8.09;42.98
50652;BME280;66928;52.086;5.240;2023-03-11T14:05:18;101053.0;;;8.13;42.45
50652;BME280;66928;52.086;5.240;2023-03-11T14:06:55;101049.0;;;8.13;43.02
50652;BME280;66928;52.086;5.240;2023-03-11T14:10:28;101049.0;;;8.18;42.94
50652;BME280;66928;52.086;5.240;2023-03-11T14:12:05;101050.0;;;7.97;42.69
50652;BME280;66928;52.086;5.240;2023-03-11T14:13:43;101051.0;;;8.01;42.39
50652;BME280;66928;52.086;5.240;2023-03-11T14:15:22;101055.0;;;8.22;42.19
50652;BME280;66928;52.086;5.240;2023-03-11T14:18:39;101052.0;;;8.26;41.33
50652;BME280;66928;52.086;5.240;2023-03-11T14:20:18;101058.0;;;8.35;41.35
50652;BME280;66928;52.086;5.240;2023-03-11T14:21:55;101058.0;;;8.31;41.27
50652;BME280;66928;52.086;5.240;2023-03-11T14:23:34;101062.0;;;8.23;40.92
50652;BME280;66928;52.086;5.240;2023-03-11T14:26:56;101069.0;;;8.1;41.54
50652;BME280;66928;52.086;5.240;2023-03-11T14:28:37;101065.0;;;8.14;41.14
50652;BME280;66928;52.086;5.240;2023-03-11T14:30:19;101059.0;;;8.25;40.56
50652;BME280;66928;52.086;5.240;2023-03-11T14:31:57;101061.0;;;8.36;41.18
50652;BME280;66928;52.086;5.240;2023-03-11T14:35:17;101066.0;;;8.33;41.25
50652;BME280;66928;52.086;5.240;2023-03-11T14:36:56;101069.0;;;8.17;39.85
50652;BME280;66928;52.086;5.240;2023-03-11T14:38:41;101071.0;;;8.23;39.71
50652;BME280;66928;52.086;5.240;2023-03-11T14:40:22;101066.0;;;8.23;39.62
50652;BME280;66928;52.086;5.240;2023-03-11T14:43:46;101062.0;;;7.85;39.9
50652;BME280;66928;52.086;5.240;2023-03-11T14:45:28;101067.0;;;7.92;38.71
50652;BME280;66928;52.086;5.240;2023-03-11T14:47:12;101073.0;;;8.07;38.06
50652;BME280;66928;52.086;5.240;2023-03-11T14:48:52;101069.0;;;7.99;38.85
50652;BME280;66928;52.086;5.240;2023-03-11T14:52:15;101069.0;;;8.16;37.97
50652;BME280;66928;52.086;5.240;2023-03-11T14:54:01;101067.0;;;7.88;37.14
50652;BME280;66928;52.086;5.240;2023-03-11T14:55:43;101068.0;;;7.97;36.97
50652;BME280;66928;52.086;5.240;2023-03-11T14:57:26;101072.0;;;8.11;38.35
50652;BME280;66928;52.086;5.240;2023-03-11T14:59:12;101064.0;;;8.19;37.22
50652;BME280;66928;52.086;5.240;2023-03-11T15:02:41;101067.0;;;8.22;37.67
50652;BME280;66928;52.086;5.240;2023-03-11T15:04:24;101070.0;;;7.96;38.25
50652;BME280;66928;52.086;5.240;2023-03-11T15:06:08;101071.0;;;7.7;39.29
50652;BME280;66928;52.086;5.240;2023-03-11T15:07:45;101072.0;;;8.0;38.67
50652;BME280;66928;52.086;5.240;2023-03-11T15:09:25;101072.0;;;7.99;38.44
50652;BME280;66928;52.086;5.240;2023-03-11T15:13:04;101080.0;;;8.05;36.87
50652;BME280;66928;52.086;5.240;2023-03-11T15:14:49;101073.0;;;7.99;33.49
50652;BME280;66928;52.086;5.240;2023-03-11T15:16:31;101073.0;;;8.17;33.86
50652;BME280;66928;52.086;5.240;2023-03-11T15:18:21;101069.0;;;8.3;34.78
50652;BME280;66928;52.086;5.240;2023-03-11T15:19:58;101065.0;;;8.4;34.21
50652;BME280;66928;52.086;5.240;2023-03-11T15:23:18;101059.0;;;8.17;34.85
50652;BME280;66928;52.086;5.240;2023-03-11T15:24:58;101061.0;;;8.17;32.78
50652;BME280;66928;52.086;5.240;2023-03-11T15:26:35;101061.0;;;8.24;33.76
50652;BME280;66928;52.086;5.240;2023-03-11T15:30:00;101057.0;;;8.26;34.15
50652;BME280;66928;52.086;5.240;2023-03-11T15:31:38;101056.0;;;8.23;33.62
50652;BME280;66928;52.086;5.240;2023-03-11T15:33:20;101055.0;;;8.36;33.92
50652;BME280;66928;52.086;5.240;2023-03-11T15:34:59;101056.0;;;8.42;34.54
50652;BME280;66928;52.086;5.240;2023-03-11T15:36:38;101053.0;;;8.55;34.01
50652;BME280;66928;52.086;5.240;2023-03-11T15:40:10;101051.0;;;8.48;34.86
50652;BME280;66928;52.086;5.240;2023-03-11T15:41:58;101049.0;;;8.48;34.32
50652;BME280;66928;52.086;5.240;2023-03-11T15:43:43;101049.0;;;8.35;34.21
50652;BME280;66928;52.086;5.240;2023-03-11T15:45:21;101055.0;;;8.38;35.07
50652;BME280;66928;52.086;5.240;2023-03-11T15:48:33;101045.0;;;8.5;34.31
50652;BME280;66928;52.086;5.240;2023-03-11T15:50:14;101049.0;;;8.44;34.04
50652;BME280;66928;52.086;5.240;2023-03-11T15:51:57;101051.0;;;8.49;34.36
50652;BME280;66928;52.086;5.240;2023-03-11T15:53:32;101051.0;;;8.38;34.56
50652;BME280;66928;52.086;5.240;2023-03-11T15:56:46;101050.0;;;8.39;35.36
50652;BME280;66928;52.086;5.240;2023-03-11T15:58:22;101052.0;;;8.51;35.24
50652;BME280;66928;52.086;5.240;2023-03-11T16:00:00;101055.0;;;8.48;34.1
50652;BME280;66928;52.086;5.240;2023-03-11T16:03:14;101048.0;;;8.49;33.75
50652;BME280;66928;52.086;5.240;2023-03-11T16:04:51;101046.0;;;8.28;33.12
50652;BME280;66928;52.086;5.240;2023-03-11T16:06:27;101047.0;;;8.23;33.74
50652;BME280;66928;52.086;5.240;2023-03-11T16:08:04;101044.0;;;8.23;34.46
50652;BME280;66928;52.086;5.240;2023-03-11T16:11:16;101046.0;;;8.14;34.89
50652;BME280;66928;52.086;5.240;2023-03-11T16:12:52;101039.0;;;8.23;35.49
50652;BME280;66928;52.086;5.240;2023-03-11T16:14:28;101043.0;;;8.17;36.42
50652;BME280;66928;52.086;5.240;2023-03-11T16:17:41;101044.0;;;8.31;35.67
50652;BME280;66928;52.086;5.240;2023-03-11T16:19:17;101042.0;;;8.34;36.19
50652;BME280;66928;52.086;5.240;2023-03-11T16:20:54;101045.0;;;8.31;36.44
50652;BME280;66928;52.086;5.240;2023-03-11T16:24:15;101042.0;;;8.23;35.81
50652;BME280;66928;52.086;5.240;2023-03-11T16:25:56;101047.0;;;8.18;34.81
50652;BME280;66928;52.086;5.240;2023-03-11T16:27:34;101048.0;;;8.25;34.15
50652;BME280;66928;52.086;5.240;2023-03-11T16:29:10;101049.0;;;8.31;34.85
50652;BME280;66928;52.086;5.240;2023-03-11T16:32:24;101044.0;;;8.13;35.32
50652;BME280;66928;52.086;5.240;2023-03-11T16:34:01;101040.0;;;8.18;34.49
50652;BME280;66928;52.086;5.240;2023-03-11T16:35:37;101038.0;;;8.11;35.25
50652;BME280;66928;52.086;5.240;2023-03-11T16:38:52;101038.0;;;8.13;34.92
50652;BME280;66928;52.086;5.240;2023-03-11T16:40:28;101048.0;;;8.17;35.89
50652;BME280;66928;52.086;5.240;2023-03-11T16:42:05;101044.0;;;8.28;35.46
50652;BME280;66928;52.086;5.240;2023-03-11T16:43:41;101040.0;;;8.23;35.17
50652;BME280;66928;52.086;5.240;2023-03-11T16:46:54;101051.0;;;7.94;36.53
50652;BME280;66928;52.086;5.240;2023-03-11T16:48:31;101044.0;;;7.8;36.62
50652;BME280;66928;52.086;5.240;2023-03-11T16:50:09;101045.0;;;8.07;36.65
50652;BME280;66928;52.086;5.240;2023-03-11T16:53:22;101051.0;;;8.07;36.6
50652;BME280;66928;52.086;5.240;2023-03-11T16:54:59;101053.0;;;7.99;36.24
50652;BME280;66928;52.086;5.240;2023-03-11T16:56:35;101051.0;;;8.1;36.96
50652;BME280;66928;52.086;5.240;2023-03-11T16:58:11;101050.0;;;8.09;37.15
50652;BME280;66928;52.086;5.240;2023-03-11T17:01:23;101053.0;;;7.99;38.67
50652;BME280;66928;52.086;5.240;2023-03-11T17:03:00;101055.0;;;7.96;38.15
50652;BME280;66928;52.086;5.240;2023-03-11T17:04:36;101050.0;;;7.8;38.42
50652;BME280;66928;52.086;5.240;2023-03-11T17:07:51;101050.0;;;7.83;38.24
50652;BME280;66928;52.086;5.240;2023-03-11T17:09:28;101049.0;;;7.76;38.9
50652;BME280;66928;52.086;5.240;2023-03-11T17:11:04;101049.0;;;7.81;38.35
50652;BME280;66928;52.086;5.240;2023-03-11T17:14:17;101045.0;;;7.79;38.1
50652;BME280;66928;52.086;5.240;2023-03-11T17:15:57;101045.0;;;7.75;38.51
50652;BME280;66928;52.086;5.240;2023-03-11T17:17:34;101046.0;;;7.68;38.96
50652;BME280;66928;52.086;5.240;2023-03-11T17:19:10;101055.0;;;7.59;38.15
50652;BME280;66928;52.086;5.240;2023-03-11T17:22:22;101052.0;;;7.54;38.47
50652;BME280;66928;52.086;5.240;2023-03-11T17:23:58;101055.0;;;7.43;39.35
50652;BME280;66928;52.086;5.240;2023-03-11T17:25:38;101061.0;;;7.34;39.97
50652;BME280;66928;52.086;5.240;2023-03-11T17:28:50;101064.0;;;7.28;39.74
50652;BME280;66928;52.086;5.240;2023-03-11T17:30:27;101059.0;;;7.36;39.58
50652;BME280;66928;52.086;5.240;2023-03-11T17:32:03;101062.0;;;7.3;39.65
50652;BME280;66928;52.086;5.240;2023-03-11T17:35:17;101060.0;;;7.32;40.0
50652;BME280;66928;52.086;5.240;2023-03-11T17:36:53;101063.0;;;7.23;40.69
50652;BME280;66928;52.086;5.240;2023-03-11T17:38:29;101064.0;;;7.11;41.32
50652;BME280;66928;52.086;5.240;2023-03-11T17:40:06;101066.0;;;7.12;41.21
50652;BME280;66928;52.086;5.240;2023-03-11T17:43:18;101071.0;;;7.05;41.22
50652;BME280;66928;52.086;5.240;2023-03-11T17:44:55;101073.0;;;7.11;41.77
50652;BME280;66928;52.086;5.240;2023-03-11T17:46:32;101072.0;;;7.09;41.85
50652;BME280;66928;52.086;5.240;2023-03-11T17:49:45;101074.0;;;7.07;41.48
50652;BME280;66928;52.086;5.240;2023-03-11T17:51:23;101078.0;;;6.99;42.28